sensor_id;sensor_type;location;lat;lon;timestamp;P1;durP1;ratioP1;P2;durP2;ratioP2
30723;SDS011;17473;52.286;20.930;2023-05-23T00:01:41;18.27;;;7.50;;
30723;SDS011;17473;52.286;20.930;2023-05-23T00:04:08;17.20;;;7.25;;
30723;SDS011;17473;52.286;20.930;2023-05-23T00:06:42;10.43;;;6.95;;
30723;SDS011;17473;52.286;20.930;2023-05-23T00:09:15;15.70;;;6.85;;
30723;SDS011;17473;52.286;20.930;2023-05-23T00:11:43;18.40;;;6.70;;
30723;SDS011;17473;52.286;20.930;2023-05-23T00:14:11;12.93;;;6.70;;
30723;SDS011;17473;52.286;20.930;2023-05-23T00:16:42;14.23;;;6.88;;
30723;SDS011;17473;52.286;20.930;2023-05-23T00:19:12;11.80;;;6.50;;
30723;SDS011;17473;52.286;20.930;2023-05-23T00:21:42;13.75;;;7.50;;
30723;SDS011;17473;52.286;20.930;2023-05-23T00:24:13;11.77;;;6.63;;
30723;SDS011;17473;52.286;20.930;2023-05-23T00:26:44;14.50;;;7.30;;
30723;SDS011;17473;52.286;20.930;2023-05-23T00:29:12;11.85;;;7.28;;
30723;SDS011;17473;52.286;20.930;2023-05-23T00:31:42;17.35;;;7.75;;
30723;SDS011;17473;52.286;20.930;2023-05-23T00:34:13;14.05;;;7.35;;
30723;SDS011;17473;52.286;20.930;2023-05-23T00:36:43;16.42;;;6.88;;
30723;SDS011;17473;52.286;20.930;2023-05-23T00:39:13;15.52;;;7.43;;
30723;SDS011;17473;52.286;20.930;2023-05-23T00:41:47;19.45;;;7.30;;
30723;SDS011;17473;52.286;20.930;2023-05-23T00:44:17;19.52;;;7.15;;
30723;SDS011;17473;52.286;20.930;2023-05-23T00:46:46;11.15;;;7.75;;
30723;SDS011;17473;52.286;20.930;2023-05-23T00:49:20;14.65;;;7.28;;
30723;SDS011;17473;52.286;20.930;2023-05-23T00:51:48;13.23;;;7.32;;
30723;SDS011;17473;52.286;20.930;2023-05-23T00:54:17;17.48;;;8.07;;
30723;SDS011;17473;52.286;20.930;2023-05-23T00:56:56;14.75;;;7.57;;
30723;SDS011;17473;52.286;20.930;2023-05-23T00:59:24;13.05;;;8.00;;
30723;SDS011;17473;52.286;20.930;2023-05-23T01:01:53;12.13;;;6.90;;
30723;SDS011;17473;52.286;20.930;2023-05-23T01:04:22;14.07;;;7.63;;
30723;SDS011;17473;52.286;20.930;2023-05-23T01:06:54;11.35;;;7.28;;
30723;SDS011;17473;52.286;20.930;2023-05-23T01:09:22;13.32;;;7.20;;
30723;SDS011;17473;52.286;20.930;2023-05-23T01:11:56;15.82;;;7.88;;
30723;SDS011;17473;52.286;20.930;2023-05-23T01:17:38;11.52;;;8.05;;
30723;SDS011;17473;52.286;20.930;2023-05-23T01:20:51;17.23;;;8.90;;
30723;SDS011;17473;52.286;20.930;2023-05-23T01:29:31;18.00;;;8.50;;
30723;SDS011;17473;52.286;20.930;2023-05-23T01:32:04;15.93;;;8.40;;
30723;SDS011;17473;52.286;20.930;2023-05-23T01:34:37;20.42;;;8.80;;
30723;SDS011;17473;52.286;20.930;2023-05-23T01:37:08;15.23;;;8.00;;
30723;SDS011;17473;52.286;20.930;2023-05-23T01:39:37;11.35;;;7.75;;
30723;SDS011;17473;52.286;20.930;2023-05-23T01:42:04;16.05;;;8.13;;
30723;SDS011;17473;52.286;20.930;2023-05-23T01:44:33;15.88;;;9.30;;
30723;SDS011;17473;52.286;20.930;2023-05-23T01:47:04;13.02;;;7.75;;
30723;SDS011;17473;52.286;20.930;2023-05-23T01:49:35;21.83;;;9.13;;
30723;SDS011;17473;52.286;20.930;2023-05-23T01:52:03;15.13;;;7.10;;
30723;SDS011;17473;52.286;20.930;2023-05-23T01:54:37;21.42;;;8.25;;
30723;SDS011;17473;52.286;20.930;2023-05-23T01:57:08;18.02;;;7.93;;
30723;SDS011;17473;52.286;20.930;2023-05-23T01:59:37;15.07;;;7.47;;
30723;SDS011;17473;52.286;20.930;2023-05-23T02:02:04;26.65;;;9.27;;
30723;SDS011;17473;52.286;20.930;2023-05-23T02:04:31;20.00;;;8.20;;
30723;SDS011;17473;52.286;20.930;2023-05-23T02:06:59;15.02;;;7.68;;
30723;SDS011;17473;52.286;20.930;2023-05-23T02:09:26;15.25;;;7.75;;
30723;SDS011;17473;52.286;20.930;2023-05-23T02:11:53;12.68;;;7.57;;
30723;SDS011;17473;52.286;20.930;2023-05-23T02:14:20;15.52;;;8.30;;
30723;SDS011;17473;52.286;20.930;2023-05-23T02:16:49;14.13;;;8.25;;
30723;SDS011;17473;52.286;20.930;2023-05-23T02:19:19;14.80;;;7.97;;
30723;SDS011;17473;52.286;20.930;2023-05-23T02:21:46;25.25;;;8.93;;
30723;SDS011;17473;52.286;20.930;2023-05-23T02:24:13;14.23;;;7.38;;
30723;SDS011;17473;52.286;20.930;2023-05-23T02:26:40;19.35;;;8.02;;
30723;SDS011;17473;52.286;20.930;2023-05-23T02:29:07;10.63;;;7.63;;
30723;SDS011;17473;52.286;20.930;2023-05-23T02:31:35;15.40;;;8.13;;
30723;SDS011;17473;52.286;20.930;2023-05-23T02:34:02;14.98;;;8.57;;
30723;SDS011;17473;52.286;20.930;2023-05-23T02:36:29;17.63;;;8.23;;
30723;SDS011;17473;52.286;20.930;2023-05-23T02:38:58;13.38;;;8.32;;
30723;SDS011;17473;52.286;20.930;2023-05-23T02:41:25;11.00;;;7.45;;
30723;SDS011;17473;52.286;20.930;2023-05-23T02:43:53;20.42;;;9.00;;
30723;SDS011;17473;52.286;20.930;2023-05-23T02:46:20;14.38;;;7.93;;
30723;SDS011;17473;52.286;20.930;2023-05-23T02:48:48;11.57;;;7.72;;
30723;SDS011;17473;52.286;20.930;2023-05-23T02:51:15;15.18;;;7.35;;
30723;SDS011;17473;52.286;20.930;2023-05-23T02:53:42;10.90;;;7.38;;
30723;SDS011;17473;52.286;20.930;2023-05-23T02:56:09;13.45;;;8.35;;
30723;SDS011;17473;52.286;20.930;2023-05-23T02:58:38;12.45;;;7.93;;
30723;SDS011;17473;52.286;20.930;2023-05-23T03:01:05;14.23;;;7.53;;
30723;SDS011;17473;52.286;20.930;2023-05-23T03:03:33;16.15;;;8.05;;
30723;SDS011;17473;52.286;20.930;2023-05-23T03:06:01;12.90;;;7.32;;
30723;SDS011;17473;52.286;20.930;2023-05-23T03:08:30;13.80;;;7.10;;
30723;SDS011;17473;52.286;20.930;2023-05-23T03:10:57;13.65;;;7.25;;
30723;SDS011;17473;52.286;20.930;2023-05-23T03:13:24;13.55;;;7.97;;
30723;SDS011;17473;52.286;20.930;2023-05-23T03:15:52;13.20;;;7.70;;
30723;SDS011;17473;52.286;20.930;2023-05-23T03:18:19;14.80;;;7.68;;
30723;SDS011;17473;52.286;20.930;2023-05-23T03:20:46;16.88;;;7.70;;
30723;SDS011;17473;52.286;20.930;2023-05-23T03:23:13;13.73;;;7.53;;
30723;SDS011;17473;52.286;20.930;2023-05-23T03:25:41;12.70;;;7.43;;
30723;SDS011;17473;52.286;20.930;2023-05-23T03:28:09;16.55;;;7.57;;
30723;SDS011;17473;52.286;20.930;2023-05-23T03:30:37;10.65;;;6.70;;
30723;SDS011;17473;52.286;20.930;2023-05-23T03:33:04;13.55;;;7.18;;
30723;SDS011;17473;52.286;20.930;2023-05-23T03:35:32;10.95;;;7.03;;
30723;SDS011;17473;52.286;20.930;2023-05-23T03:37:59;9.90;;;6.70;;
30723;SDS011;17473;52.286;20.930;2023-05-23T03:40:27;10.90;;;6.47;;
30723;SDS011;17473;52.286;20.930;2023-05-23T03:43:27;11.25;;;6.43;;
30723;SDS011;17473;52.286;20.930;2023-05-23T03:45:47;14.30;;;6.65;;
30723;SDS011;17473;52.286;20.930;2023-05-23T03:48:14;11.23;;;6.63;;
30723;SDS011;17473;52.286;20.930;2023-05-23T03:50:42;10.57;;;6.22;;
30723;SDS011;17473;52.286;20.930;2023-05-23T03:53:09;11.50;;;6.50;;
30723;SDS011;17473;52.286;20.930;2023-05-23T03:55:37;10.65;;;6.57;;
30723;SDS011;17473;52.286;20.930;2023-05-23T03:58:05;16.40;;;6.80;;
30723;SDS011;17473;52.286;20.930;2023-05-23T04:00:32;11.18;;;6.18;;
30723;SDS011;17473;52.286;20.930;2023-05-23T04:02:59;14.15;;;6.22;;
30723;SDS011;17473;52.286;20.930;2023-05-23T04:05:26;9.30;;;6.35;;
30723;SDS011;17473;52.286;20.930;2023-05-23T04:07:54;8.70;;;5.85;;
30723;SDS011;17473;52.286;20.930;2023-05-23T04:10:21;16.02;;;6.47;;
30723;SDS011;17473;52.286;20.930;2023-05-23T04:12:48;6.63;;;5.50;;
30723;SDS011;17473;52.286;20.930;2023-05-23T04:15:16;11.48;;;6.35;;
30723;SDS011;17473;52.286;20.930;2023-05-23T04:17:46;11.63;;;5.68;;
30723;SDS011;17473;52.286;20.930;2023-05-23T04:20:14;10.38;;;5.75;;
30723;SDS011;17473;52.286;20.930;2023-05-23T04:22:41;9.93;;;5.30;;
30723;SDS011;17473;52.286;20.930;2023-05-23T04:25:08;6.43;;;5.38;;
30723;SDS011;17473;52.286;20.930;2023-05-23T04:27:35;7.50;;;5.50;;
30723;SDS011;17473;52.286;20.930;2023-05-23T04:30:06;7.40;;;5.15;;
30723;SDS011;17473;52.286;20.930;2023-05-23T04:32:35;21.27;;;7.45;;
30723;SDS011;17473;52.286;20.930;2023-05-23T04:35:03;8.30;;;4.93;;
30723;SDS011;17473;52.286;20.930;2023-05-23T04:37:31;12.70;;;5.90;;
30723;SDS011;17473;52.286;20.930;2023-05-23T04:39:58;9.23;;;5.35;;
30723;SDS011;17473;52.286;20.930;2023-05-23T04:42:25;12.07;;;5.43;;
30723;SDS011;17473;52.286;20.930;2023-05-23T04:44:54;9.93;;;5.05;;
30723;SDS011;17473;52.286;20.930;2023-05-23T04:47:24;7.93;;;4.80;;
30723;SDS011;17473;52.286;20.930;2023-05-23T04:49:54;15.98;;;5.97;;
30723;SDS011;17473;52.286;20.930;2023-05-23T04:52:22;11.15;;;5.60;;
30723;SDS011;17473;52.286;20.930;2023-05-23T04:54:50;11.45;;;5.63;;
30723;SDS011;17473;52.286;20.930;2023-05-23T04:57:19;12.48;;;4.45;;
30723;SDS011;17473;52.286;20.930;2023-05-23T04:59:47;8.70;;;4.72;;
30723;SDS011;17473;52.286;20.930;2023-05-23T05:02:14;8.13;;;4.70;;
30723;SDS011;17473;52.286;20.930;2023-05-23T05:04:41;12.95;;;4.90;;
30723;SDS011;17473;52.286;20.930;2023-05-23T05:07:08;11.27;;;4.82;;
30723;SDS011;17473;52.286;20.930;2023-05-23T05:09:35;12.20;;;5.00;;
30723;SDS011;17473;52.286;20.930;2023-05-23T05:12:02;11.10;;;4.95;;
30723;SDS011;17473;52.286;20.930;2023-05-23T05:14:30;11.98;;;4.35;;
30723;SDS011;17473;52.286;20.930;2023-05-23T05:16:57;10.63;;;5.10;;
30723;SDS011;17473;52.286;20.930;2023-05-23T05:19:24;12.40;;;4.15;;
30723;SDS011;17473;52.286;20.930;2023-05-23T05:21:51;8.15;;;4.15;;
30723;SDS011;17473;52.286;20.930;2023-05-23T05:24:18;9.48;;;4.55;;
30723;SDS011;17473;52.286;20.930;2023-05-23T05:26:47;9.38;;;4.45;;
30723;SDS011;17473;52.286;20.930;2023-05-23T05:29:15;9.93;;;4.13;;
30723;SDS011;17473;52.286;20.930;2023-05-23T05:31:42;8.68;;;3.90;;
30723;SDS011;17473;52.286;20.930;2023-05-23T05:34:10;10.57;;;4.45;;
30723;SDS011;17473;52.286;20.930;2023-05-23T05:36:38;11.32;;;4.40;;
30723;SDS011;17473;52.286;20.930;2023-05-23T05:39:11;5.25;;;3.70;;
30723;SDS011;17473;52.286;20.930;2023-05-23T05:41:42;10.35;;;4.00;;
30723;SDS011;17473;52.286;20.930;2023-05-23T05:44:09;6.57;;;3.78;;
30723;SDS011;17473;52.286;20.930;2023-05-23T05:46:36;6.18;;;4.05;;
30723;SDS011;17473;52.286;20.930;2023-05-23T05:49:03;8.70;;;4.10;;
30723;SDS011;17473;52.286;20.930;2023-05-23T05:51:30;12.18;;;4.22;;
30723;SDS011;17473;52.286;20.930;2023-05-23T05:53:57;5.85;;;3.55;;
30723;SDS011;17473;52.286;20.930;2023-05-23T05:56:24;8.23;;;4.35;;
30723;SDS011;17473;52.286;20.930;2023-05-23T05:58:53;11.38;;;4.32;;
30723;SDS011;17473;52.286;20.930;2023-05-23T06:01:20;6.68;;;3.70;;
30723;SDS011;17473;52.286;20.930;2023-05-23T06:03:47;14.27;;;4.13;;
30723;SDS011;17473;52.286;20.930;2023-05-23T06:06:14;13.27;;;4.30;;
30723;SDS011;17473;52.286;20.930;2023-05-23T06:08:42;11.30;;;3.70;;
30723;SDS011;17473;52.286;20.930;2023-05-23T06:11:09;10.48;;;4.57;;
30723;SDS011;17473;52.286;20.930;2023-05-23T06:13:37;5.70;;;4.18;;
30723;SDS011;17473;52.286;20.930;2023-05-23T06:16:04;9.57;;;4.15;;
30723;SDS011;17473;52.286;20.930;2023-05-23T06:18:32;8.88;;;3.47;;
30723;SDS011;17473;52.286;20.930;2023-05-23T06:20:59;7.85;;;3.42;;
30723;SDS011;17473;52.286;20.930;2023-05-23T06:23:26;6.63;;;3.85;;
30723;SDS011;17473;52.286;20.930;2023-05-23T06:25:53;10.95;;;3.60;;
30723;SDS011;17473;52.286;20.930;2023-05-23T06:28:20;9.18;;;3.58;;
30723;SDS011;17473;52.286;20.930;2023-05-23T06:30:47;6.68;;;3.40;;
30723;SDS011;17473;52.286;20.930;2023-05-23T06:33:15;8.43;;;3.53;;
30723;SDS011;17473;52.286;20.930;2023-05-23T06:35:42;6.45;;;3.50;;
30723;SDS011;17473;52.286;20.930;2023-05-23T06:38:09;6.82;;;3.50;;
30723;SDS011;17473;52.286;20.930;2023-05-23T06:40:36;10.60;;;3.38;;
30723;SDS011;17473;52.286;20.930;2023-05-23T06:43:03;7.20;;;3.00;;
30723;SDS011;17473;52.286;20.930;2023-05-23T06:45:30;6.18;;;3.47;;
30723;SDS011;17473;52.286;20.930;2023-05-23T06:48:00;7.93;;;3.38;;
30723;SDS011;17473;52.286;20.930;2023-05-23T06:50:27;14.15;;;3.92;;
30723;SDS011;17473;52.286;20.930;2023-05-23T06:52:54;6.55;;;3.33;;
30723;SDS011;17473;52.286;20.930;2023-05-23T06:55:22;6.47;;;3.83;;
30723;SDS011;17473;52.286;20.930;2023-05-23T06:57:49;7.93;;;3.00;;
30723;SDS011;17473;52.286;20.930;2023-05-23T07:00:17;8.43;;;2.90;;
30723;SDS011;17473;52.286;20.930;2023-05-23T07:02:45;6.68;;;3.05;;
30723;SDS011;17473;52.286;20.930;2023-05-23T07:05:14;7.90;;;3.03;;
30723;SDS011;17473;52.286;20.930;2023-05-23T07:07:42;5.43;;;2.75;;
30723;SDS011;17473;52.286;20.930;2023-05-23T07:10:09;8.50;;;3.33;;
30723;SDS011;17473;52.286;20.930;2023-05-23T07:12:36;7.22;;;3.45;;
30723;SDS011;17473;52.286;20.930;2023-05-23T07:15:03;5.82;;;2.83;;
30723;SDS011;17473;52.286;20.930;2023-05-23T07:17:31;4.63;;;3.03;;
30723;SDS011;17473;52.286;20.930;2023-05-23T07:19:58;7.00;;;3.22;;
30723;SDS011;17473;52.286;20.930;2023-05-23T07:22:26;9.40;;;3.30;;
30723;SDS011;17473;52.286;20.930;2023-05-23T07:24:53;11.18;;;3.15;;
30723;SDS011;17473;52.286;20.930;2023-05-23T07:27:20;5.40;;;2.67;;
30723;SDS011;17473;52.286;20.930;2023-05-23T07:29:47;7.57;;;2.97;;
30723;SDS011;17473;52.286;20.930;2023-05-23T07:32:16;6.18;;;3.20;;
30723;SDS011;17473;52.286;20.930;2023-05-23T07:34:43;4.57;;;2.80;;
30723;SDS011;17473;52.286;20.930;2023-05-23T07:37:10;14.30;;;3.92;;
30723;SDS011;17473;52.286;20.930;2023-05-23T07:39:37;12.52;;;3.67;;
30723;SDS011;17473;52.286;20.930;2023-05-23T07:42:04;4.95;;;2.72;;
30723;SDS011;17473;52.286;20.930;2023-05-23T07:44:31;4.45;;;2.97;;
30723;SDS011;17473;52.286;20.930;2023-05-23T07:46:58;5.95;;;2.70;;
30723;SDS011;17473;52.286;20.930;2023-05-23T07:49:25;5.22;;;3.20;;
30723;SDS011;17473;52.286;20.930;2023-05-23T07:51:52;5.65;;;2.67;;
30723;SDS011;17473;52.286;20.930;2023-05-23T07:54:19;6.60;;;2.92;;
30723;SDS011;17473;52.286;20.930;2023-05-23T07:56:46;6.03;;;2.53;;
30723;SDS011;17473;52.286;20.930;2023-05-23T07:59:13;5.88;;;3.13;;
30723;SDS011;17473;52.286;20.930;2023-05-23T08:01:40;6.05;;;3.05;;
30723;SDS011;17473;52.286;20.930;2023-05-23T08:04:08;7.80;;;2.47;;
30723;SDS011;17473;52.286;20.930;2023-05-23T08:06:35;7.07;;;2.60;;
30723;SDS011;17473;52.286;20.930;2023-05-23T08:09:07;7.90;;;2.63;;
30723;SDS011;17473;52.286;20.930;2023-05-23T08:11:35;10.63;;;3.22;;
30723;SDS011;17473;52.286;20.930;2023-05-23T08:14:02;7.80;;;2.63;;
30723;SDS011;17473;52.286;20.930;2023-05-23T08:16:29;6.53;;;3.35;;
30723;SDS011;17473;52.286;20.930;2023-05-23T08:18:56;4.93;;;3.13;;
30723;SDS011;17473;52.286;20.930;2023-05-23T08:21:23;6.60;;;2.97;;
30723;SDS011;17473;52.286;20.930;2023-05-23T08:23:50;5.70;;;2.78;;
30723;SDS011;17473;52.286;20.930;2023-05-23T08:26:17;4.95;;;2.88;;
30723;SDS011;17473;52.286;20.930;2023-05-23T08:28:45;4.57;;;2.47;;
30723;SDS011;17473;52.286;20.930;2023-05-23T08:31:12;6.65;;;3.00;;
30723;SDS011;17473;52.286;20.930;2023-05-23T08:33:39;8.18;;;2.70;;
30723;SDS011;17473;52.286;20.930;2023-05-23T08:36:06;3.22;;;2.50;;
30723;SDS011;17473;52.286;20.930;2023-05-23T08:38:33;3.33;;;2.40;;
30723;SDS011;17473;52.286;20.930;2023-05-23T08:41:00;6.05;;;2.50;;
30723;SDS011;17473;52.286;20.930;2023-05-23T08:43:27;6.75;;;2.80;;
30723;SDS011;17473;52.286;20.930;2023-05-23T08:45:55;7.82;;;3.00;;
30723;SDS011;17473;52.286;20.930;2023-05-23T08:48:22;5.05;;;2.42;;
30723;SDS011;17473;52.286;20.930;2023-05-23T08:50:52;10.20;;;3.45;;
30723;SDS011;17473;52.286;20.930;2023-05-23T08:53:19;3.67;;;2.47;;
30723;SDS011;17473;52.286;20.930;2023-05-23T08:55:48;6.35;;;2.75;;
30723;SDS011;17473;52.286;20.930;2023-05-23T08:58:21;7.03;;;3.00;;
30723;SDS011;17473;52.286;20.930;2023-05-23T09:00:50;3.28;;;2.50;;
30723;SDS011;17473;52.286;20.930;2023-05-23T09:03:19;3.13;;;2.30;;
30723;SDS011;17473;52.286;20.930;2023-05-23T09:05:48;7.93;;;2.40;;
30723;SDS011;17473;52.286;20.930;2023-05-23T09:08:15;8.77;;;3.28;;
30723;SDS011;17473;52.286;20.930;2023-05-23T09:10:44;7.20;;;2.70;;
30723;SDS011;17473;52.286;20.930;2023-05-23T09:13:15;6.38;;;2.70;;
30723;SDS011;17473;52.286;20.930;2023-05-23T09:18:25;3.25;;;2.22;;
30723;SDS011;17473;52.286;20.930;2023-05-23T09:20:53;9.40;;;2.78;;
30723;SDS011;17473;52.286;20.930;2023-05-23T09:23:20;4.68;;;2.67;;
30723;SDS011;17473;52.286;20.930;2023-05-23T09:25:47;4.75;;;2.30;;
30723;SDS011;17473;52.286;20.930;2023-05-23T09:28:14;18.10;;;3.60;;
30723;SDS011;17473;52.286;20.930;2023-05-23T09:30:41;7.97;;;2.33;;
30723;SDS011;17473;52.286;20.930;2023-05-23T09:33:08;4.18;;;2.72;;
30723;SDS011;17473;52.286;20.930;2023-05-23T09:35:43;6.38;;;2.50;;
30723;SDS011;17473;52.286;20.930;2023-05-23T09:38:11;3.92;;;2.50;;
30723;SDS011;17473;52.286;20.930;2023-05-23T09:40:43;2.60;;;2.03;;
30723;SDS011;17473;52.286;20.930;2023-05-23T09:43:10;3.17;;;2.35;;
30723;SDS011;17473;52.286;20.930;2023-05-23T09:45:37;3.05;;;2.47;;
30723;SDS011;17473;52.286;20.930;2023-05-23T09:48:06;3.63;;;2.20;;
30723;SDS011;17473;52.286;20.930;2023-05-23T09:50:39;4.75;;;2.28;;
30723;SDS011;17473;52.286;20.930;2023-05-23T09:53:07;5.30;;;2.50;;
30723;SDS011;17473;52.286;20.930;2023-05-23T09:55:34;3.30;;;2.15;;
30723;SDS011;17473;52.286;20.930;2023-05-23T09:58:02;5.20;;;2.60;;
30723;SDS011;17473;52.286;20.930;2023-05-23T10:00:30;3.65;;;2.40;;
30723;SDS011;17473;52.286;20.930;2023-05-23T10:05:48;3.58;;;2.70;;
30723;SDS011;17473;52.286;20.930;2023-05-23T10:08:20;5.40;;;2.97;;
30723;SDS011;17473;52.286;20.930;2023-05-23T10:13:44;6.57;;;2.72;;
30723;SDS011;17473;52.286;20.930;2023-05-23T10:19:06;7.10;;;2.60;;
30723;SDS011;17473;52.286;20.930;2023-05-23T10:21:48;4.63;;;2.55;;
30723;SDS011;17473;52.286;20.930;2023-05-23T10:24:23;7.32;;;3.03;;
30723;SDS011;17473;52.286;20.930;2023-05-23T10:26:51;7.07;;;2.40;;
30723;SDS011;17473;52.286;20.930;2023-05-23T10:29:21;5.53;;;3.15;;
30723;SDS011;17473;52.286;20.930;2023-05-23T10:31:48;3.13;;;2.60;;
30723;SDS011;17473;52.286;20.930;2023-05-23T10:37:03;7.15;;;2.50;;
30723;SDS011;17473;52.286;20.930;2023-05-23T10:42:29;4.07;;;2.20;;
30723;SDS011;17473;52.286;20.930;2023-05-23T10:45:18;6.18;;;2.67;;
30723;SDS011;17473;52.286;20.930;2023-05-23T10:47:48;3.35;;;2.58;;
30723;SDS011;17473;52.286;20.930;2023-05-23T10:50:31;5.78;;;2.28;;
30723;SDS011;17473;52.286;20.930;2023-05-23T10:53:03;5.22;;;3.30;;
30723;SDS011;17473;52.286;20.930;2023-05-23T10:55:31;5.43;;;2.60;;
30723;SDS011;17473;52.286;20.930;2023-05-23T10:58:08;5.68;;;2.20;;
30723;SDS011;17473;52.286;20.930;2023-05-23T11:00:54;8.85;;;2.70;;
30723;SDS011;17473;52.286;20.930;2023-05-23T11:03:48;4.30;;;2.75;;
30723;SDS011;17473;52.286;20.930;2023-05-23T11:06:38;6.03;;;2.92;;
30723;SDS011;17473;52.286;20.930;2023-05-23T11:09:10;5.00;;;2.42;;
30723;SDS011;17473;52.286;20.930;2023-05-23T11:16:59;9.60;;;2.70;;
30723;SDS011;17473;52.286;20.930;2023-05-23T11:19:54;12.00;;;2.88;;
30723;SDS011;17473;52.286;20.930;2023-05-23T11:22:33;8.90;;;2.70;;
30723;SDS011;17473;52.286;20.930;2023-05-23T11:25:05;8.48;;;3.45;;
30723;SDS011;17473;52.286;20.930;2023-05-23T11:27:36;5.78;;;2.65;;
30723;SDS011;17473;52.286;20.930;2023-05-23T11:32:39;6.28;;;2.35;;
30723;SDS011;17473;52.286;20.930;2023-05-23T11:35:08;5.43;;;3.03;;
30723;SDS011;17473;52.286;20.930;2023-05-23T11:37:37;9.63;;;2.83;;
30723;SDS011;17473;52.286;20.930;2023-05-23T11:40:24;9.15;;;2.65;;
30723;SDS011;17473;52.286;20.930;2023-05-23T11:43:02;4.03;;;2.90;;
30723;SDS011;17473;52.286;20.930;2023-05-23T11:45:40;8.07;;;3.13;;
30723;SDS011;17473;52.286;20.930;2023-05-23T11:53:30;6.28;;;2.88;;
30723;SDS011;17473;52.286;20.930;2023-05-23T11:56:00;3.83;;;2.65;;
30723;SDS011;17473;52.286;20.930;2023-05-23T11:58:29;3.05;;;2.53;;
30723;SDS011;17473;52.286;20.930;2023-05-23T12:01:02;3.33;;;2.17;;
30723;SDS011;17473;52.286;20.930;2023-05-23T12:03:43;6.43;;;2.72;;
30723;SDS011;17473;52.286;20.930;2023-05-23T12:06:19;5.80;;;2.67;;
30723;SDS011;17473;52.286;20.930;2023-05-23T12:08:49;5.22;;;2.83;;
30723;SDS011;17473;52.286;20.930;2023-05-23T12:11:18;4.40;;;2.83;;
30723;SDS011;17473;52.286;20.930;2023-05-23T12:13:45;5.20;;;2.55;;
30723;SDS011;17473;52.286;20.930;2023-05-23T12:16:12;6.20;;;2.72;;
30723;SDS011;17473;52.286;20.930;2023-05-23T12:18:41;5.18;;;2.35;;
30723;SDS011;17473;52.286;20.930;2023-05-23T12:21:09;7.70;;;3.17;;
30723;SDS011;17473;52.286;20.930;2023-05-23T12:23:37;6.80;;;2.70;;
30723;SDS011;17473;52.286;20.930;2023-05-23T12:26:05;9.52;;;2.97;;
30723;SDS011;17473;52.286;20.930;2023-05-23T12:31:07;6.78;;;2.90;;
30723;SDS011;17473;52.286;20.930;2023-05-23T12:33:39;6.47;;;3.03;;
30723;SDS011;17473;52.286;20.930;2023-05-23T12:36:10;6.93;;;2.80;;
30723;SDS011;17473;52.286;20.930;2023-05-23T12:38:38;4.55;;;2.80;;
30723;SDS011;17473;52.286;20.930;2023-05-23T12:41:19;4.75;;;3.15;;
30723;SDS011;17473;52.286;20.930;2023-05-23T12:43:51;6.70;;;2.70;;
30723;SDS011;17473;52.286;20.930;2023-05-23T12:46:20;3.90;;;2.70;;
30723;SDS011;17473;52.286;20.930;2023-05-23T12:48:51;8.18;;;3.75;;
30723;SDS011;17473;52.286;20.930;2023-05-23T12:51:19;6.25;;;3.13;;
30723;SDS011;17473;52.286;20.930;2023-05-23T12:53:47;3.92;;;2.70;;
30723;SDS011;17473;52.286;20.930;2023-05-23T12:56:14;6.00;;;2.83;;
30723;SDS011;17473;52.286;20.930;2023-05-23T12:58:41;6.88;;;3.15;;
30723;SDS011;17473;52.286;20.930;2023-05-23T13:01:09;6.85;;;2.83;;
30723;SDS011;17473;52.286;20.930;2023-05-23T13:03:36;6.05;;;3.28;;
30723;SDS011;17473;52.286;20.930;2023-05-23T13:06:03;12.07;;;3.25;;
30723;SDS011;17473;52.286;20.930;2023-05-23T13:08:32;9.95;;;3.05;;
30723;SDS011;17473;52.286;20.930;2023-05-23T13:10:59;5.43;;;2.85;;
30723;SDS011;17473;52.286;20.930;2023-05-23T13:13:26;6.45;;;3.00;;
30723;SDS011;17473;52.286;20.930;2023-05-23T13:15:53;8.40;;;3.55;;
30723;SDS011;17473;52.286;20.930;2023-05-23T13:18:21;6.20;;;2.75;;
30723;SDS011;17473;52.286;20.930;2023-05-23T13:20:48;6.57;;;2.85;;
30723;SDS011;17473;52.286;20.930;2023-05-23T13:23:16;3.40;;;2.58;;
30723;SDS011;17473;52.286;20.930;2023-05-23T13:25:43;7.07;;;2.63;;
30723;SDS011;17473;52.286;20.930;2023-05-23T13:28:10;4.28;;;2.70;;
30723;SDS011;17473;52.286;20.930;2023-05-23T13:30:37;4.03;;;3.28;;
30723;SDS011;17473;52.286;20.930;2023-05-23T13:33:04;4.75;;;2.95;;
30723;SDS011;17473;52.286;20.930;2023-05-23T13:35:32;3.28;;;2.83;;
30723;SDS011;17473;52.286;20.930;2023-05-23T13:37:59;5.72;;;2.88;;
30723;SDS011;17473;52.286;20.930;2023-05-23T13:40:26;3.60;;;2.83;;
30723;SDS011;17473;52.286;20.930;2023-05-23T13:42:53;3.88;;;3.10;;
30723;SDS011;17473;52.286;20.930;2023-05-23T13:45:21;6.53;;;3.13;;
30723;SDS011;17473;52.286;20.930;2023-05-23T13:47:48;4.97;;;3.10;;
30723;SDS011;17473;52.286;20.930;2023-05-23T13:50:15;7.38;;;3.05;;
30723;SDS011;17473;52.286;20.930;2023-05-23T13:52:43;5.75;;;3.78;;
30723;SDS011;17473;52.286;20.930;2023-05-23T13:55:14;5.93;;;2.97;;
30723;SDS011;17473;52.286;20.930;2023-05-23T13:57:42;7.93;;;3.65;;
30723;SDS011;17473;52.286;20.930;2023-05-23T14:00:10;3.50;;;3.00;;
30723;SDS011;17473;52.286;20.930;2023-05-23T14:02:37;4.18;;;3.38;;
30723;SDS011;17473;52.286;20.930;2023-05-23T14:05:05;5.30;;;3.25;;
30723;SDS011;17473;52.286;20.930;2023-05-23T14:07:33;12.07;;;3.58;;
30723;SDS011;17473;52.286;20.930;2023-05-23T14:10:01;4.72;;;3.25;;
30723;SDS011;17473;52.286;20.930;2023-05-23T14:12:30;4.30;;;3.20;;
30723;SDS011;17473;52.286;20.930;2023-05-23T14:14:57;5.93;;;3.15;;
30723;SDS011;17473;52.286;20.930;2023-05-23T14:17:24;7.60;;;3.22;;
30723;SDS011;17473;52.286;20.930;2023-05-23T14:19:52;6.85;;;3.65;;
30723;SDS011;17473;52.286;20.930;2023-05-23T14:22:19;5.90;;;2.90;;
30723;SDS011;17473;52.286;20.930;2023-05-23T14:24:46;7.50;;;2.90;;
30723;SDS011;17473;52.286;20.930;2023-05-23T14:27:13;10.27;;;3.30;;
30723;SDS011;17473;52.286;20.930;2023-05-23T14:29:40;6.53;;;3.67;;
30723;SDS011;17473;52.286;20.930;2023-05-23T14:32:11;8.55;;;3.13;;
30723;SDS011;17473;52.286;20.930;2023-05-23T14:34:39;4.65;;;3.00;;
30723;SDS011;17473;52.286;20.930;2023-05-23T14:37:06;3.88;;;3.10;;
30723;SDS011;17473;52.286;20.930;2023-05-23T14:39:33;5.93;;;2.92;;
30723;SDS011;17473;52.286;20.930;2023-05-23T14:42:01;7.88;;;3.47;;
30723;SDS011;17473;52.286;20.930;2023-05-23T14:44:28;6.35;;;3.83;;
30723;SDS011;17473;52.286;20.930;2023-05-23T14:46:56;3.67;;;2.88;;
30723;SDS011;17473;52.286;20.930;2023-05-23T14:49:23;11.23;;;3.05;;
30723;SDS011;17473;52.286;20.930;2023-05-23T14:51:50;18.85;;;6.88;;
30723;SDS011;17473;52.286;20.930;2023-05-23T14:54:17;5.90;;;3.88;;
30723;SDS011;17473;52.286;20.930;2023-05-23T14:56:45;6.90;;;3.33;;
30723;SDS011;17473;52.286;20.930;2023-05-23T14:59:12;8.57;;;3.17;;
30723;SDS011;17473;52.286;20.930;2023-05-23T15:01:39;7.10;;;3.25;;
30723;SDS011;17473;52.286;20.930;2023-05-23T15:04:07;11.10;;;4.28;;
30723;SDS011;17473;52.286;20.930;2023-05-23T15:06:35;4.30;;;3.40;;
30723;SDS011;17473;52.286;20.930;2023-05-23T15:09:04;8.15;;;3.53;;
30723;SDS011;17473;52.286;20.930;2023-05-23T15:11:32;5.93;;;3.53;;
30723;SDS011;17473;52.286;20.930;2023-05-23T15:14:04;4.68;;;3.25;;
30723;SDS011;17473;52.286;20.930;2023-05-23T15:16:31;5.00;;;3.35;;
30723;SDS011;17473;52.286;20.930;2023-05-23T15:19:00;4.72;;;3.90;;
30723;SDS011;17473;52.286;20.930;2023-05-23T15:21:27;4.57;;;3.50;;